Terminal Aerodrome Forecast
Issued by NWS

Home | Current Version | Previous Version | Graphics & Text | Print | Product List | Glossary On
Versions: 1 2 3 4 5 6 7 8 9 10 11 12 13 14 15 16 17
000
FTUS43 KMPX 291013 AAB
TAFRNH
TAF AMD
KRNH 291013Z 2910/3006 05004KT 6SM BR SCT250
      TEMPO 2910/2912 3SM BR
     FM291600 08004KT P6SM SCT010
     FM291800 16003KT P6SM SCT020
     FM300500 00000KT 6SM BR FEW025=

USA.gov is the U.S. government's official web portal to all federal, state and local government web resources and services.